createdAt,value
2018-05-31T00:01:25.751Z,74.13
2018-05-31T00:03:53.939Z,86.53
2018-05-31T00:06:22.398Z,80.83
2018-05-31T00:08:50.250Z,77.50
2018-05-31T00:11:17.897Z,79.03
2018-05-31T00:13:46.038Z,92.33
2018-05-31T00:16:13.822Z,100.93
2018-05-31T00:18:41.412Z,85.83
2018-05-31T00:21:09.030Z,98.13
2018-05-31T00:23:36.915Z,85.33
2018-05-31T00:26:04.961Z,97.00
2018-05-31T00:28:32.556Z,85.07
2018-05-31T00:31:00.239Z,92.50
2018-05-31T00:33:27.942Z,98.17
2018-05-31T00:35:55.964Z,114.33
2018-05-31T00:38:23.870Z,90.77
2018-05-31T00:40:51.483Z,97.17
2018-05-31T00:43:19.399Z,102.37
2018-05-31T00:45:47.076Z,97.80
2018-05-31T00:48:14.676Z,86.60
2018-05-31T00:50:42.370Z,91.10
2018-05-31T00:53:10.028Z,93.00
2018-05-31T00:55:49.262Z,81.77
2018-05-31T00:58:17.219Z,88.53
2018-05-31T01:00:44.834Z,93.33
2018-05-31T01:03:12.430Z,100.93
2018-05-31T01:05:40.381Z,93.00
2018-05-31T01:08:08.007Z,91.10
2018-05-31T01:10:35.965Z,103.07
2018-05-31T01:13:03.588Z,99.23
2018-05-31T01:15:31.182Z,99.77
2018-05-31T01:17:59.363Z,94.43
2018-05-31T01:20:26.978Z,107.00
2018-05-31T01:22:54.571Z,114.13
2018-05-31T01:25:22.242Z,102.50
2018-05-31T01:27:50.317Z,102.87
2018-05-31T01:30:17.919Z,95.97
2018-05-31T01:32:45.555Z,100.63
2018-05-31T01:35:13.279Z,99.40
2018-05-31T01:37:40.892Z,97.33
2018-05-31T01:40:08.520Z,113.53
2018-05-31T01:42:36.371Z,107.47
2018-05-31T01:45:04.270Z,114.50
2018-05-31T01:47:32.067Z,99.33
2018-05-31T01:49:59.677Z,112.20
2018-05-31T01:52:29.653Z,102.23
2018-05-31T01:54:57.270Z,104.37
2018-05-31T01:57:24.870Z,128.50
2018-05-31T01:59:52.495Z,121.67
2018-05-31T02:02:20.113Z,127.47
2018-05-31T02:04:47.748Z,128.37
2018-05-31T02:07:15.681Z,123.37
2018-05-31T02:09:43.334Z,125.60
2018-05-31T02:12:10.978Z,141.80
2018-05-31T02:14:38.573Z,141.33
2018-05-31T02:17:06.212Z,131.40
2018-05-31T02:19:34.120Z,121.23
2018-05-31T02:22:01.800Z,135.67
2018-05-31T02:24:29.487Z,135.17
2018-05-31T02:26:57.488Z,139.93
2018-05-31T02:29:25.092Z,129.77
2018-05-31T02:31:52.759Z,140.93
2018-05-31T02:34:20.388Z,131.70
2018-05-31T02:36:48.082Z,140.07
2018-05-31T02:39:15.783Z,144.20
2018-05-31T02:41:43.737Z,144.07
2018-05-31T02:44:11.631Z,129.67
2018-05-31T02:46:39.482Z,128.60
2018-05-31T02:49:07.120Z,139.93
2018-05-31T02:51:34.729Z,144.10
2018-05-31T02:54:02.551Z,134.57
2018-05-31T02:56:30.168Z,134.73
2018-05-31T02:58:57.791Z,143.20
2018-05-31T03:01:25.601Z,134.73
2018-05-31T03:03:53.222Z,144.60
2018-05-31T03:06:20.813Z,142.33
2018-05-31T03:08:48.538Z,148.63
2018-05-31T03:11:16.430Z,132.03
2018-05-31T03:13:44.047Z,139.70
2018-05-31T03:16:11.693Z,140.83
2018-05-31T03:18:39.625Z,145.13
2018-05-31T03:21:07.257Z,153.00
2018-05-31T03:23:34.906Z,149.53
2018-05-31T03:26:02.641Z,150.77
2018-05-31T03:28:30.243Z,151.10
2018-05-31T03:30:58.005Z,147.40
2018-05-31T03:33:25.649Z,139.33
2018-05-31T03:35:53.506Z,155.93
2018-05-31T03:38:21.124Z,148.97
2018-05-31T03:40:48.714Z,146.93
2018-05-31T03:43:16.493Z,142.53
2018-05-31T03:45:44.218Z,145.67
2018-05-31T03:48:11.833Z,146.53
2018-05-31T03:50:39.470Z,141.57
2018-05-31T03:53:07.252Z,152.07
2018-05-31T03:55:34.863Z,149.83
2018-05-31T03:58:02.789Z,145.20
2018-05-31T04:00:30.513Z,140.80
2018-05-31T04:02:58.126Z,146.00
2018-05-31T04:05:25.822Z,144.70
2018-05-31T04:07:53.455Z,140.03
2018-05-31T04:10:21.223Z,137.83
2018-05-31T04:12:49.097Z,152.67
2018-05-31T04:15:16.695Z,148.13
2018-05-31T04:17:44.410Z,143.50
2018-05-31T04:20:12.038Z,136.07
2018-05-31T04:22:45.188Z,140.17
2018-05-31T04:25:12.778Z,143.17
2018-05-31T04:27:40.406Z,134.97
2018-05-31T04:30:08.066Z,154.60
2018-05-31T04:32:35.744Z,138.13
2018-05-31T04:35:03.375Z,155.70
2018-05-31T04:37:31.079Z,146.77
2018-05-31T04:39:58.881Z,137.90
2018-05-31T04:42:26.523Z,148.70
2018-05-31T04:44:54.277Z,144.27
2018-05-31T04:47:21.960Z,160.70
2018-05-31T04:49:49.583Z,147.97
2018-05-31T04:52:17.242Z,157.13
2018-05-31T04:54:44.858Z,147.30
2018-05-31T04:57:12.556Z,157.53
2018-05-31T04:59:40.438Z,163.90
2018-05-31T05:02:08.973Z,151.80
2018-05-31T05:04:36.592Z,154.97
2018-05-31T05:07:04.480Z,155.67
2018-05-31T05:09:32.257Z,156.30
2018-05-31T05:11:59.949Z,157.10
2018-05-31T05:14:27.584Z,159.90
2018-05-31T05:16:55.415Z,166.90
2018-05-31T05:19:23.142Z,168.03
2018-05-31T05:21:51.062Z,157.30
2018-05-31T05:24:18.688Z,154.00
2018-05-31T05:26:46.306Z,159.90
2018-05-31T05:29:14.161Z,150.83
2018-05-31T05:31:42.274Z,151.13
2018-05-31T05:34:09.906Z,153.40
2018-05-31T05:36:37.516Z,151.83
2018-05-31T05:39:05.908Z,139.73
2018-05-31T05:41:33.540Z,147.97
2018-05-31T05:44:01.569Z,140.43
2018-05-31T05:46:29.519Z,129.60
2018-05-31T05:48:57.179Z,130.00
2018-05-31T05:51:24.822Z,141.53
2018-05-31T05:53:52.780Z,135.00
2018-05-31T05:56:20.651Z,128.50
2018-05-31T05:58:48.627Z,133.37
2018-05-31T06:01:16.314Z,127.33
2018-05-31T06:03:43.989Z,125.40
2018-05-31T06:06:11.915Z,131.43
2018-05-31T06:08:39.668Z,133.70
2018-05-31T06:11:07.290Z,129.53
2018-05-31T06:13:34.886Z,133.13
2018-05-31T06:16:02.711Z,114.83
2018-05-31T06:18:30.402Z,124.87
2018-05-31T06:20:58.390Z,127.80
2018-05-31T06:23:26.012Z,118.33
2018-05-31T06:25:54.059Z,110.87
2018-05-31T06:28:21.800Z,119.60
2018-05-31T06:30:49.659Z,110.40
2018-05-31T06:33:17.373Z,113.23
2018-05-31T06:35:44.994Z,117.03
2018-05-31T06:38:12.619Z,123.40
2018-05-31T06:40:40.220Z,127.87
2018-05-31T06:43:07.849Z,134.63
2018-05-31T06:45:35.717Z,113.00
2018-05-31T06:48:03.326Z,113.13
2018-05-31T06:50:31.032Z,111.33
2018-05-31T06:52:58.652Z,111.33
2018-05-31T06:55:26.693Z,98.60
2018-05-31T06:57:54.314Z,103.33
2018-05-31T07:00:21.900Z,95.23
2018-05-31T07:02:49.815Z,103.20
2018-05-31T07:05:17.394Z,98.03
2018-05-31T07:07:45.403Z,89.10
2018-05-31T07:10:13.035Z,82.87
2018-05-31T07:12:41.001Z,77.43
2018-05-31T07:15:08.705Z,89.43
2018-05-31T07:17:36.292Z,72.47
2018-05-31T07:20:03.889Z,77.80
2018-05-31T07:22:31.747Z,63.80
2018-05-31T07:24:59.366Z,75.93
2018-05-31T07:27:27.265Z,73.23
2018-05-31T07:29:54.880Z,84.37
2018-05-31T07:32:22.472Z,77.97
2018-05-31T07:34:50.217Z,58.17
2018-05-31T07:37:17.810Z,60.13
2018-05-31T07:39:45.722Z,58.20
2018-05-31T07:42:13.352Z,64.13
2018-05-31T07:44:40.970Z,53.20
2018-05-31T07:47:08.686Z,49.43
2018-05-31T07:49:36.272Z,54.40
2018-05-31T07:52:03.917Z,52.10
2018-05-31T07:54:31.946Z,50.07
2018-05-31T07:56:59.785Z,57.13
2018-05-31T07:59:27.442Z,51.43
2018-05-31T08:01:56.018Z,49.77
2018-05-31T08:04:23.612Z,49.67
2018-05-31T08:06:51.360Z,53.97
2018-05-31T08:09:18.979Z,52.40
2018-05-31T08:11:46.643Z,56.77
2018-05-31T08:14:14.265Z,51.73
2018-05-31T08:16:41.866Z,54.43
2018-05-31T08:19:09.537Z,43.37
2018-05-31T08:21:37.158Z,47.60
2018-05-31T08:24:04.775Z,39.07
2018-05-31T08:26:32.523Z,39.33
2018-05-31T08:29:00.129Z,32.60
2018-05-31T08:31:27.817Z,31.03
2018-05-31T08:33:55.441Z,33.70
2018-05-31T08:36:23.059Z,40.07
2018-05-31T08:38:50.696Z,35.13
2018-05-31T08:41:18.303Z,36.67
2018-05-31T08:43:46.231Z,32.13
2018-05-31T08:46:13.830Z,39.90
2018-05-31T08:48:41.462Z,39.17
2018-05-31T08:51:09.101Z,27.73
2018-05-31T08:53:36.953Z,34.33
2018-05-31T08:56:04.567Z,41.70
2018-05-31T08:58:32.400Z,38.13
2018-05-31T09:01:00.019Z,37.63
2018-05-31T09:03:27.686Z,48.80
2018-05-31T09:05:55.561Z,46.07
2018-05-31T09:08:23.156Z,52.57
2018-05-31T09:10:50.848Z,43.93
2018-05-31T09:13:18.645Z,36.90
2018-05-31T09:15:46.661Z,37.47
2018-05-31T09:18:14.529Z,39.60
2018-05-31T09:20:42.121Z,38.40
2018-05-31T09:23:09.737Z,38.00
2018-05-31T09:25:37.319Z,37.13
2018-05-31T09:28:04.962Z,34.50
2018-05-31T09:30:32.599Z,41.20
2018-05-31T09:33:00.397Z,45.23
2018-05-31T09:35:28.006Z,37.23
2018-05-31T09:37:55.984Z,47.73
2018-05-31T09:40:23.591Z,30.63
2018-05-31T09:42:53.180Z,26.67
2018-05-31T09:45:20.830Z,24.80
2018-05-31T09:47:48.778Z,31.13
2018-05-31T09:50:16.449Z,34.90
2018-05-31T09:52:44.498Z,27.77
2018-05-31T09:55:12.172Z,28.00
2018-05-31T09:57:39.847Z,16.93
2018-05-31T10:00:07.710Z,18.47
2018-05-31T10:02:35.336Z,18.87
2018-05-31T10:05:02.926Z,14.27
2018-05-31T10:07:30.898Z,12.33
2018-05-31T10:09:58.503Z,12.00
2018-05-31T10:12:26.133Z,17.10
2018-05-31T10:14:53.786Z,24.30
2018-05-31T10:17:21.388Z,22.93
2018-05-31T10:19:48.996Z,24.57
2018-05-31T10:22:16.728Z,18.50
2018-05-31T10:24:44.342Z,21.80
2018-05-31T10:27:11.980Z,21.07
2018-05-31T10:29:39.957Z,21.17
2018-05-31T10:32:07.624Z,18.30
2018-05-31T10:34:35.781Z,16.73
2018-05-31T10:37:03.364Z,23.43
2018-05-31T10:39:30.989Z,21.03
2018-05-31T10:41:58.703Z,22.63
2018-05-31T10:44:26.311Z,26.17
2018-05-31T10:46:54.198Z,22.50
2018-05-31T10:49:21.832Z,16.13
2018-05-31T10:51:49.513Z,20.90
2018-05-31T10:54:17.164Z,19.40
2018-05-31T10:56:44.844Z,17.63
2018-05-31T10:59:12.494Z,13.80
2018-05-31T11:01:40.115Z,16.33
2018-05-31T11:04:08.136Z,12.07
2018-05-31T11:06:35.829Z,13.80
2018-05-31T11:09:03.649Z,11.73
2018-05-31T11:11:31.347Z,12.13
2018-05-31T11:13:58.964Z,11.67
2018-05-31T11:16:27.020Z,10.37
2018-05-31T11:18:54.604Z,11.83
2018-05-31T11:21:22.187Z,9.80
2018-05-31T11:23:49.790Z,11.13
2018-05-31T11:26:17.797Z,15.17
2018-05-31T11:28:45.438Z,13.27
2018-05-31T11:31:13.262Z,12.03
2018-05-31T11:33:41.144Z,10.57
2018-05-31T11:36:08.803Z,11.30
2018-05-31T11:38:36.508Z,11.60
2018-05-31T11:41:04.101Z,15.17
2018-05-31T11:43:31.704Z,14.70
2018-05-31T11:45:59.899Z,14.80
2018-05-31T11:48:27.511Z,12.33
2018-05-31T11:50:55.365Z,12.03
2018-05-31T11:53:23.330Z,12.47
2018-05-31T11:55:51.192Z,14.87
2018-05-31T11:58:18.787Z,13.40
2018-05-31T12:00:46.428Z,13.13
2018-05-31T12:03:14.007Z,13.13
2018-05-31T12:05:41.673Z,13.30
2018-05-31T12:08:09.333Z,11.47
2018-05-31T12:10:36.901Z,14.20
2018-05-31T12:13:04.543Z,12.33
2018-05-31T12:15:32.150Z,13.60
2018-05-31T12:18:00.217Z,11.00
2018-05-31T12:20:28.122Z,15.50
2018-05-31T12:22:55.705Z,18.93
2018-05-31T12:25:23.362Z,11.80
2018-05-31T12:27:50.971Z,8.53
2018-05-31T12:30:18.584Z,10.17
2018-05-31T12:32:46.478Z,9.83
2018-05-31T12:35:14.069Z,15.40
2018-05-31T12:37:41.821Z,7.70
2018-05-31T12:40:09.481Z,15.77
2018-05-31T12:42:37.110Z,8.77
2018-05-31T12:45:04.725Z,10.23
2018-05-31T12:47:32.327Z,14.97
2018-05-31T12:49:59.947Z,10.37
2018-05-31T12:52:27.550Z,7.37
2018-05-31T12:54:55.481Z,7.10
2018-05-31T12:57:23.076Z,9.57
2018-05-31T12:59:50.647Z,8.73
2018-05-31T13:02:18.344Z,8.50
2018-05-31T13:04:45.942Z,8.00
2018-05-31T13:07:13.558Z,8.33
2018-05-31T13:09:41.474Z,6.77
2018-05-31T13:12:09.084Z,14.60
2018-05-31T13:14:37.177Z,8.20
2018-05-31T13:17:04.753Z,8.47
2018-05-31T13:19:32.459Z,10.60
2018-05-31T13:22:00.299Z,6.60
2018-05-31T13:24:27.921Z,7.23
2018-05-31T13:26:55.546Z,13.53
2018-05-31T13:29:23.214Z,7.03
2018-05-31T13:31:50.838Z,6.90
2018-05-31T13:34:18.418Z,8.87
2018-05-31T13:36:46.095Z,6.50
2018-05-31T13:39:13.664Z,5.93
2018-05-31T13:41:41.256Z,6.80
2018-05-31T13:44:08.863Z,13.23
2018-05-31T13:46:36.836Z,14.57
2018-05-31T13:49:04.414Z,7.00
2018-05-31T13:51:32.345Z,6.60
2018-05-31T13:54:00.194Z,9.43
2018-05-31T13:56:27.893Z,9.37
2018-05-31T13:58:55.523Z,10.53
2018-05-31T14:01:23.439Z,6.43
2018-05-31T14:03:51.067Z,9.10
2018-05-31T14:06:18.673Z,6.20
2018-05-31T14:08:46.313Z,7.87
2018-05-31T14:11:14.648Z,8.00
2018-05-31T14:13:42.258Z,9.80
2018-05-31T14:16:09.845Z,7.47
2018-05-31T14:18:37.615Z,8.93
2018-05-31T14:21:05.786Z,13.23
2018-05-31T14:23:33.618Z,9.47
2018-05-31T14:26:01.285Z,8.23
2018-05-31T14:28:28.905Z,9.93
2018-05-31T14:30:56.511Z,13.23
2018-05-31T14:33:24.116Z,13.93
2018-05-31T14:35:51.748Z,8.33
2018-05-31T14:38:19.598Z,10.03
2018-05-31T14:40:47.392Z,11.93
2018-05-31T14:43:15.057Z,8.63
2018-05-31T14:45:42.671Z,15.30
2018-05-31T14:48:10.289Z,7.97
2018-05-31T14:50:37.941Z,13.93
2018-05-31T14:53:05.932Z,15.77
2018-05-31T14:55:33.555Z,11.80
2018-05-31T14:58:01.205Z,29.53
2018-05-31T15:00:28.832Z,31.57
2018-05-31T15:02:56.484Z,32.97
2018-05-31T15:05:24.066Z,32.60
2018-05-31T15:07:51.655Z,28.80
2018-05-31T15:10:19.285Z,20.80
2018-05-31T15:12:48.382Z,24.30
2018-05-31T15:15:16.297Z,15.33
2018-05-31T15:17:44.181Z,13.97
2018-05-31T15:20:12.016Z,19.83
2018-05-31T15:22:39.587Z,15.63
2018-05-31T15:25:07.218Z,17.17
2018-05-31T15:27:34.871Z,12.77
2018-05-31T15:30:02.629Z,10.30
2018-05-31T15:32:30.208Z,12.33
2018-05-31T15:34:57.798Z,9.07
2018-05-31T15:37:25.426Z,14.30
2018-05-31T15:39:53.014Z,10.07
2018-05-31T15:42:21.140Z,10.93
2018-05-31T15:44:48.884Z,13.00
2018-05-31T15:47:16.559Z,10.60
2018-05-31T15:49:44.203Z,9.80
2018-05-31T15:52:11.798Z,10.70
2018-05-31T15:54:39.422Z,10.73
2018-05-31T15:57:07.298Z,6.73
2018-05-31T15:59:35.289Z,11.90
2018-05-31T16:02:03.147Z,12.53
2018-05-31T16:04:30.737Z,7.03
2018-05-31T16:06:58.365Z,10.43
2018-05-31T16:09:26.048Z,13.53
2018-05-31T16:11:54.193Z,13.10
2018-05-31T16:14:21.843Z,9.80
2018-05-31T16:16:49.474Z,11.90
2018-05-31T16:19:17.083Z,7.40
2018-05-31T16:21:44.958Z,13.47
2018-05-31T16:24:12.602Z,9.00
2018-05-31T16:26:40.784Z,7.33
2018-05-31T16:29:08.381Z,9.23
2018-05-31T16:31:36.015Z,14.30
2018-05-31T16:34:03.726Z,7.10
2018-05-31T16:36:31.851Z,11.13
2018-05-31T16:38:59.453Z,15.27
2018-05-31T16:41:27.020Z,11.30
2018-05-31T16:43:54.629Z,14.77
2018-05-31T16:46:22.214Z,17.07
2018-05-31T16:48:49.813Z,25.37
2018-05-31T16:51:17.443Z,24.13
2018-05-31T16:53:45.215Z,25.00
2018-05-31T16:56:12.816Z,34.93
2018-05-31T16:58:40.405Z,19.67
2018-05-31T17:01:08.446Z,16.27
2018-05-31T17:03:36.051Z,17.83
2018-05-31T17:06:03.892Z,20.90
2018-05-31T17:08:31.887Z,18.50
2018-05-31T17:10:59.592Z,15.47
2018-05-31T17:13:27.624Z,17.37
2018-05-31T17:15:55.333Z,18.37
2018-05-31T17:18:22.914Z,24.03
2018-05-31T17:20:50.549Z,15.50
2018-05-31T17:23:18.202Z,19.03
2018-05-31T17:25:46.018Z,15.97
2018-05-31T17:28:13.788Z,18.17
2018-05-31T17:30:41.662Z,15.93
2018-05-31T17:33:09.247Z,19.73
2018-05-31T17:35:37.253Z,15.47
2018-05-31T17:38:04.939Z,16.70
2018-05-31T17:40:32.595Z,17.53
2018-05-31T17:43:00.238Z,17.33
2018-05-31T17:45:27.872Z,20.03
2018-05-31T17:47:55.541Z,17.37
2018-05-31T17:50:23.621Z,21.73
2018-05-31T17:52:51.260Z,18.10
2018-05-31T17:55:18.849Z,17.37
2018-05-31T17:57:46.557Z,18.53
2018-05-31T18:00:14.135Z,22.60
2018-05-31T18:02:41.926Z,18.20
2018-05-31T18:05:09.592Z,23.70
2018-05-31T18:07:37.156Z,16.53
2018-05-31T18:10:04.931Z,18.67
2018-05-31T18:12:32.514Z,22.43
2018-05-31T18:15:00.346Z,18.47
2018-05-31T18:17:28.035Z,17.60
2018-05-31T18:19:55.672Z,18.33
2018-05-31T18:22:23.412Z,22.63
2018-05-31T18:24:51.110Z,26.17
2018-05-31T18:27:18.721Z,26.07
2018-05-31T18:29:46.727Z,17.63
2018-05-31T18:32:14.293Z,23.47
2018-05-31T18:34:41.870Z,27.27
2018-05-31T18:37:09.536Z,28.93
2018-05-31T18:39:37.160Z,20.40
2018-05-31T18:42:04.879Z,20.40
2018-05-31T18:44:32.729Z,19.03
2018-05-31T18:47:00.304Z,19.97
2018-05-31T18:49:28.156Z,18.40
2018-05-31T18:51:55.777Z,20.93
2018-05-31T18:54:23.399Z,18.40
2018-05-31T18:56:50.975Z,28.03
2018-05-31T18:59:18.898Z,21.27
2018-05-31T19:01:46.514Z,18.00
2018-05-31T19:04:14.421Z,17.70
2018-05-31T19:06:41.541Z,16.97
2018-05-31T19:09:09.130Z,17.63
2018-05-31T19:11:37.063Z,14.90
2018-05-31T19:14:04.630Z,16.20
2018-05-31T19:16:32.236Z,16.00
2018-05-31T19:19:05.522Z,14.93
2018-05-31T19:21:33.088Z,14.73
2018-05-31T19:24:06.663Z,17.07
2018-05-31T19:26:34.230Z,16.13
2018-05-31T19:29:01.897Z,14.47
2018-05-31T19:31:29.516Z,22.00
2018-05-31T19:33:57.081Z,17.43
2018-05-31T19:36:30.321Z,16.87
2018-05-31T19:38:58.197Z,12.40
2018-05-31T19:41:25.769Z,13.23
2018-05-31T19:43:59.273Z,13.77
2018-05-31T19:46:26.841Z,14.83
2018-05-31T19:48:54.635Z,13.00
2018-05-31T19:51:27.828Z,24.13
2018-05-31T19:53:55.393Z,15.73
2018-05-31T19:56:23.001Z,16.67
2018-05-31T19:58:56.229Z,15.60
2018-05-31T20:01:29.206Z,16.30
2018-05-31T20:03:56.892Z,12.10
2018-05-31T20:06:24.522Z,20.20
2018-05-31T20:08:52.180Z,16.80
2018-05-31T20:11:20.113Z,19.27
2018-05-31T20:13:47.977Z,14.73
2018-05-31T20:16:15.846Z,17.67
2018-05-31T20:18:43.439Z,16.23
2018-05-31T20:21:11.632Z,15.73
2018-05-31T20:23:39.254Z,19.47
2018-05-31T20:26:06.871Z,17.33
2018-05-31T20:28:34.698Z,15.30
2018-05-31T20:31:02.347Z,20.50
2018-05-31T20:33:29.936Z,15.80
2018-05-31T20:35:57.533Z,16.97
2018-05-31T20:38:25.172Z,18.07
2018-05-31T20:40:52.734Z,16.33
2018-05-31T20:43:20.308Z,31.60
2018-05-31T20:45:47.900Z,21.90
2018-05-31T20:48:15.533Z,16.40
2018-05-31T20:50:43.147Z,23.23
2018-05-31T20:53:10.712Z,18.73
2018-05-31T20:55:38.524Z,20.30
2018-05-31T20:58:06.500Z,19.37
2018-05-31T21:00:34.133Z,17.70
2018-05-31T21:03:01.699Z,17.90
2018-05-31T21:05:29.364Z,24.53
2018-05-31T21:07:56.961Z,20.93
2018-05-31T21:10:24.604Z,19.53
2018-05-31T21:12:52.477Z,21.10
2018-05-31T21:15:20.111Z,21.93
2018-05-31T21:17:47.806Z,24.13
2018-05-31T21:20:15.394Z,22.87
2018-05-31T21:22:42.974Z,19.57
2018-05-31T21:25:10.587Z,27.27
2018-05-31T21:27:38.223Z,22.30
2018-05-31T21:30:06.161Z,21.60
2018-05-31T21:32:33.735Z,20.10
2018-05-31T21:35:01.306Z,32.30
2018-05-31T21:37:29.340Z,22.97
2018-05-31T21:39:57.208Z,26.57
2018-05-31T21:42:24.778Z,23.93
2018-05-31T21:44:52.381Z,23.77
2018-05-31T21:47:20.292Z,20.03
2018-05-31T21:49:47.927Z,21.53
2018-05-31T21:52:15.554Z,20.60
2018-05-31T21:54:43.182Z,32.73
2018-05-31T21:57:11.105Z,23.23
2018-05-31T21:59:38.738Z,17.83
2018-05-31T22:02:06.338Z,20.50
2018-05-31T22:04:33.923Z,18.37
2018-05-31T22:07:01.527Z,22.87
2018-05-31T22:09:29.100Z,26.60
2018-05-31T22:11:56.846Z,26.60
2018-05-31T22:14:24.411Z,20.07
2018-05-31T22:16:51.987Z,24.87
2018-05-31T22:19:19.639Z,28.10
2018-05-31T22:21:47.446Z,26.43
2018-05-31T22:24:15.009Z,23.93
2018-05-31T22:26:42.902Z,25.70
2018-05-31T22:29:10.511Z,27.83
2018-05-31T22:31:38.130Z,23.90
2018-05-31T22:34:05.693Z,29.20
2018-05-31T22:36:33.405Z,29.30
2018-05-31T22:39:01.048Z,36.17
2018-05-31T22:41:28.615Z,33.60
2018-05-31T22:43:56.206Z,29.07
2018-05-31T22:46:23.768Z,27.70
2018-05-31T22:48:51.327Z,34.27
2018-05-31T22:51:18.936Z,32.17
2018-05-31T22:53:46.507Z,41.83
2018-05-31T22:56:14.074Z,32.93
2018-05-31T22:58:41.935Z,34.33
2018-05-31T23:01:09.586Z,37.50
2018-05-31T23:03:37.146Z,32.13
2018-05-31T23:06:04.853Z,39.20
2018-05-31T23:08:37.978Z,29.70
2018-05-31T23:11:05.567Z,33.67
2018-05-31T23:13:33.178Z,38.80
2018-05-31T23:16:00.738Z,34.20
2018-05-31T23:18:28.309Z,31.87
2018-05-31T23:20:55.945Z,36.50
2018-05-31T23:23:23.494Z,41.33
2018-05-31T23:25:51.116Z,33.10
2018-05-31T23:28:18.764Z,31.40
2018-05-31T23:30:46.701Z,34.07
2018-05-31T23:33:14.318Z,37.87
2018-05-31T23:35:41.951Z,33.40
2018-05-31T23:38:09.564Z,32.90
2018-05-31T23:40:37.367Z,33.63
2018-05-31T23:43:04.942Z,37.17
2018-05-31T23:45:33.325Z,39.63
2018-05-31T23:48:00.892Z,37.73
2018-05-31T23:50:28.466Z,41.10
2018-05-31T23:52:56.060Z,37.93
2018-05-31T23:55:23.704Z,37.80
2018-05-31T23:57:51.550Z,41.47
